createdAt,value
2019-04-21T00:00:58.039Z,50.99
2019-04-21T00:01:54.119Z,51.21
2019-04-21T00:02:53.777Z,51.27
2019-04-21T00:03:57.471Z,51.13
2019-04-21T00:05:10.867Z,51.09
2019-04-21T00:06:18.360Z,51.09
2019-04-21T00:07:16.064Z,51.13
2019-04-21T00:08:21.405Z,51.07
2019-04-21T00:09:19.102Z,51.09
2019-04-21T00:10:13.636Z,51.20
2019-04-21T00:11:15.283Z,51.25
2019-04-21T00:12:15.055Z,51.27
2019-04-21T00:13:14.789Z,51.34
2019-04-21T00:14:11.337Z,51.30
2019-04-21T00:15:06.106Z,51.41
2019-04-21T00:16:01.465Z,51.64
2019-04-21T00:17:05.395Z,51.68
2019-04-21T00:18:01.062Z,51.74
2019-04-21T00:19:03.351Z,51.71
2019-04-21T00:20:11.357Z,51.86
2019-04-21T00:21:09.606Z,51.81
2019-04-21T00:22:11.743Z,51.90
2019-04-21T00:23:13.679Z,52.04
2019-04-21T00:24:14.977Z,52.19
2019-04-21T00:25:15.371Z,52.29
2019-04-21T00:26:16.142Z,52.43
2019-04-21T00:27:15.596Z,52.48
2019-04-21T00:28:23.897Z,52.45
2019-04-21T00:29:27.107Z,52.54
2019-04-21T00:30:24.042Z,52.67
2019-04-21T00:31:23.034Z,52.84
2019-04-21T00:32:16.725Z,52.98
2019-04-21T00:33:09.187Z,53.28
2019-04-21T00:34:02.598Z,53.37
2019-04-21T00:35:08.208Z,53.47
2019-04-21T00:36:10.211Z,53.50
2019-04-21T00:37:12.098Z,53.43
2019-04-21T00:38:25.002Z,53.41
2019-04-21T00:39:40.973Z,53.52
2019-04-21T00:40:22.744Z,53.50
2019-04-21T00:41:25.015Z,53.60
2019-04-21T00:42:25.661Z,53.61
2019-04-21T00:43:19.784Z,53.60
2019-04-21T00:44:14.247Z,53.68
2019-04-21T00:45:20.581Z,53.65
2019-04-21T00:46:19.009Z,53.81
2019-04-21T00:47:29.175Z,53.86
2019-04-21T00:48:29.947Z,53.91
2019-04-21T00:49:19.750Z,53.99
2019-04-21T00:50:25.703Z,54.12
2019-04-21T00:51:37.114Z,54.07
2019-04-21T00:52:39.664Z,54.40
2019-04-21T00:53:36.862Z,54.58
2019-04-21T00:54:35.387Z,54.67
2019-04-21T00:55:32.499Z,54.72
2019-04-21T00:56:27.478Z,54.81
2019-04-21T00:57:32.505Z,55.02
2019-04-21T00:59:31.668Z,55.39
2019-04-21T01:00:26.983Z,55.69
2019-04-21T01:01:26.730Z,55.95
2019-04-21T01:02:29.304Z,56.28
2019-04-21T01:03:35.509Z,56.30
2019-04-21T01:04:33.320Z,56.50
2019-04-21T01:05:33.490Z,56.69
2019-04-21T01:06:33.102Z,57.10
2019-04-21T01:07:31.415Z,57.11
2019-04-21T01:08:31.164Z,57.25
2019-04-21T01:09:29.167Z,57.21
2019-04-21T01:10:24.527Z,57.27
2019-04-21T01:12:36.360Z,57.24
2019-04-21T01:13:33.321Z,57.58
2019-04-21T01:14:34.731Z,57.84
2019-04-21T01:15:39.880Z,57.78
2019-04-21T01:16:34.505Z,57.88
2019-04-21T01:17:35.617Z,57.83
2019-04-21T01:18:32.569Z,58.08
2019-04-21T01:19:33.445Z,58.26
2019-04-21T01:20:17.752Z,58.34
2019-04-21T01:21:14.599Z,58.32
2019-04-21T01:22:13.881Z,58.42
2019-04-21T01:23:14.690Z,58.67
2019-04-21T01:24:21.949Z,58.95
2019-04-21T01:25:22.923Z,59.09
2019-04-21T01:26:31.068Z,59.31
2019-04-21T01:27:25.206Z,59.41
2019-04-21T01:28:36.226Z,59.54
2019-04-21T01:29:37.474Z,59.76
2019-04-21T01:30:34.627Z,59.82
2019-04-21T01:31:35.024Z,59.85
2019-04-21T01:32:34.422Z,59.86
2019-04-21T01:33:39.785Z,59.81
2019-04-21T01:34:39.198Z,60.03
2019-04-21T01:35:42.591Z,60.14
2019-04-21T01:36:35.918Z,60.09
2019-04-21T01:37:44.127Z,60.09
2019-04-21T01:38:40.221Z,60.29
2019-04-21T01:39:40.899Z,60.45
2019-04-21T01:40:43.109Z,60.67
2019-04-21T01:41:45.014Z,60.68
2019-04-21T01:42:39.439Z,60.69
2019-04-21T01:43:39.501Z,60.69
2019-04-21T01:44:44.550Z,60.86
2019-04-21T01:45:37.017Z,60.81
2019-04-21T01:46:33.633Z,60.77
2019-04-21T01:48:37.468Z,60.95
2019-04-21T01:49:29.558Z,61.86
2019-04-21T01:50:41.168Z,61.83
2019-04-21T01:51:45.281Z,62.17
2019-04-21T01:52:50.242Z,62.27
2019-04-21T01:53:45.273Z,62.45
2019-04-21T01:54:51.977Z,62.64
2019-04-21T01:55:45.594Z,62.68
2019-04-21T01:56:49.784Z,63.01
2019-04-21T01:57:42.511Z,63.20
2019-04-21T01:58:36.282Z,63.66
2019-04-21T01:59:34.944Z,63.98
2019-04-21T02:00:39.103Z,64.09
2019-04-21T02:01:48.509Z,64.43
2019-04-21T02:02:46.206Z,64.52
2019-04-21T02:03:52.775Z,64.90
2019-04-21T02:04:47.371Z,64.78
2019-04-21T02:05:55.337Z,64.82
2019-04-21T02:06:55.030Z,64.85
2019-04-21T02:07:47.493Z,65.14
2019-04-21T02:08:44.934Z,65.01
2019-04-21T02:09:51.928Z,65.20
2019-04-21T02:10:56.068Z,65.52
2019-04-21T02:11:50.903Z,65.58
2019-04-21T02:12:55.333Z,65.61
2019-04-21T02:13:57.234Z,65.53
2019-04-21T02:14:59.248Z,65.48
2019-04-21T02:15:59.419Z,65.49
2019-04-21T02:16:54.113Z,65.53
2019-04-21T02:17:53.964Z,65.48
2019-04-21T02:18:49.387Z,65.71
2019-04-21T02:19:46.391Z,65.64
2019-04-21T02:20:43.482Z,65.66
2019-04-21T02:21:43.547Z,65.65
2019-04-21T02:23:10.262Z,65.53
2019-04-21T02:24:01.593Z,65.29
2019-04-21T02:24:56.655Z,65.11
2019-04-21T02:26:00.049Z,65.09
2019-04-21T02:26:47.707Z,65.12
2019-04-21T02:28:01.232Z,65.05
2019-04-21T02:29:03.267Z,65.20
2019-04-21T02:30:03.514Z,65.33
2019-04-21T02:31:18.177Z,65.48
2019-04-21T02:33:28.024Z,65.05
2019-04-21T02:34:17.305Z,64.95
2019-04-21T02:40:11.518Z,66.11
2019-04-21T02:41:21.397Z,65.96
2019-04-21T02:42:11.606Z,65.90
2019-04-21T02:43:11.347Z,65.82
2019-04-21T02:44:12.346Z,65.80
2019-04-21T02:45:12.859Z,65.88
2019-04-21T02:46:12.999Z,65.93
2019-04-21T02:47:09.556Z,65.79
2019-04-21T02:48:08.946Z,66.16
2019-04-21T02:49:17.109Z,66.06
2019-04-21T02:50:21.982Z,66.08
2019-04-21T02:51:10.338Z,66.21
2019-04-21T02:52:35.465Z,66.27
2019-04-21T02:55:06.333Z,66.17
2019-04-21T02:56:19.186Z,66.14
2019-04-21T02:57:18.432Z,66.48
2019-04-21T02:58:18.212Z,66.33
2019-04-21T03:00:15.696Z,66.97
2019-04-21T03:01:23.871Z,66.90
2019-04-21T03:02:17.030Z,67.04
2019-04-21T03:03:13.360Z,67.14
2019-04-21T03:05:21.299Z,67.32
2019-04-21T03:06:21.077Z,67.45
2019-04-21T03:08:15.086Z,67.51
2019-04-21T03:09:17.579Z,67.68
2019-04-21T03:10:17.851Z,67.91
2019-04-21T03:12:20.615Z,68.73
2019-04-21T03:13:21.787Z,69.32
2019-04-21T03:16:55.671Z,70.54
2019-04-21T03:17:26.801Z,70.79
2019-04-21T03:20:25.491Z,71.86
2019-04-21T03:22:22.601Z,72.71
2019-04-21T03:24:24.725Z,73.43
2019-04-21T03:25:41.854Z,73.93
2019-04-21T03:26:27.435Z,73.78
2019-04-21T03:27:35.612Z,73.75
2019-04-21T03:28:22.654Z,74.13
2019-04-21T03:29:37.061Z,74.20
2019-04-21T03:32:47.881Z,74.77
2019-04-21T03:34:05.745Z,74.99
2019-04-21T03:34:41.771Z,75.67
2019-04-21T03:37:35.418Z,75.81
2019-04-21T03:38:29.314Z,76.11
2019-04-21T03:40:22.236Z,77.03
2019-04-21T03:42:38.944Z,77.15
2019-04-21T03:44:39.476Z,76.49
2019-04-21T03:48:27.132Z,76.90
2019-04-21T03:49:47.449Z,76.98
2019-04-21T03:51:25.606Z,77.72
2019-04-21T03:52:30.171Z,78.11
2019-04-21T03:54:26.701Z,79.41
2019-04-21T03:57:46.364Z,80.24
2019-04-21T03:58:46.373Z,80.52
2019-04-21T03:59:24.546Z,80.41
2019-04-21T04:01:28.503Z,81.02
2019-04-21T04:02:34.389Z,80.47
2019-04-21T04:04:47.568Z,80.56
2019-04-21T04:05:51.623Z,80.25
2019-04-21T04:06:40.269Z,80.04
2019-04-21T04:09:37.513Z,79.38
2019-04-21T04:10:42.715Z,79.30
2019-04-21T04:11:38.188Z,79.19
2019-04-21T04:12:34.739Z,78.92
2019-04-21T04:13:53.436Z,78.91
2019-04-21T04:15:42.991Z,79.51
2019-04-21T04:17:32.968Z,79.71
2019-04-21T04:19:39.376Z,80.65
2019-04-21T04:20:34.724Z,80.28
2019-04-21T04:21:42.041Z,80.01
2019-04-21T04:22:37.941Z,80.42
2019-04-21T04:23:41.582Z,80.39
2019-04-21T04:25:27.356Z,80.16
2019-04-21T04:28:49.792Z,80.07
2019-04-21T04:29:35.241Z,80.34
2019-04-21T04:31:37.575Z,80.60
2019-04-21T04:32:40.919Z,80.57
2019-04-21T04:34:41.105Z,80.21
2019-04-21T04:35:48.929Z,80.26
2019-04-21T04:37:38.371Z,80.79
2019-04-21T04:38:44.203Z,81.61
2019-04-21T04:40:38.702Z,81.18
2019-04-21T04:41:41.663Z,81.24
2019-04-21T04:43:37.255Z,81.94
2019-04-21T04:45:38.485Z,82.13
2019-04-21T04:46:47.640Z,81.91
2019-04-21T04:47:47.313Z,81.61
2019-04-21T04:48:45.956Z,81.54
2019-04-21T04:49:49.725Z,81.51
2019-04-21T04:52:09.644Z,81.32
2019-04-21T04:52:37.764Z,80.82
2019-04-21T04:53:45.592Z,80.12
2019-04-21T04:55:58.918Z,79.27
2019-04-21T04:56:53.748Z,78.93
2019-04-21T04:57:59.384Z,78.66
2019-04-21T04:59:09.844Z,78.35
2019-04-21T04:59:47.529Z,77.99
2019-04-21T05:00:48.203Z,77.72
2019-04-21T05:01:57.550Z,77.39
2019-04-21T05:02:41.742Z,77.26
2019-04-21T05:05:48.757Z,76.44
2019-04-21T05:07:52.286Z,75.72
2019-04-21T05:09:47.272Z,75.12
2019-04-21T05:10:56.901Z,74.93
2019-04-21T05:11:50.515Z,74.81
2019-04-21T05:12:45.814Z,74.38
2019-04-21T05:14:46.739Z,74.07
2019-04-21T05:15:57.565Z,73.78
2019-04-21T05:17:52.511Z,73.17
2019-04-21T05:18:54.348Z,72.92
2019-04-21T05:20:03.547Z,72.80
2019-04-21T05:20:58.709Z,72.39
2019-04-21T05:22:04.929Z,71.91
2019-04-21T05:22:45.918Z,71.83
2019-04-21T05:23:44.237Z,71.46
2019-04-21T05:24:41.934Z,71.32
2019-04-21T05:25:37.861Z,70.91
2019-04-21T05:27:38.043Z,70.55
2019-04-21T05:28:37.352Z,70.43
2019-04-21T05:29:50.957Z,70.15
2019-04-21T05:30:50.798Z,69.87
2019-04-21T05:31:49.638Z,69.52
2019-04-21T05:32:45.223Z,69.57
2019-04-21T05:33:44.855Z,69.51
2019-04-21T05:34:46.769Z,68.96
2019-04-21T05:35:47.876Z,68.56
2019-04-21T05:36:45.885Z,68.06
2019-04-21T05:37:43.241Z,67.59
2019-04-21T05:38:41.769Z,67.37
2019-04-21T05:39:42.352Z,66.96
2019-04-21T05:40:38.899Z,66.96
2019-04-21T05:41:37.219Z,66.81
2019-04-21T05:42:39.585Z,66.58
2019-04-21T05:43:46.305Z,66.03
2019-04-21T05:45:56.721Z,64.79
2019-04-21T05:47:00.985Z,65.00
2019-04-21T05:47:58.340Z,64.73
2019-04-21T05:48:45.735Z,64.30
2019-04-21T05:49:45.197Z,63.91
2019-04-21T05:50:44.146Z,63.56
2019-04-21T05:51:46.582Z,63.12
2019-04-21T05:52:44.690Z,62.78
2019-04-21T05:53:48.243Z,62.33
2019-04-21T05:54:57.301Z,61.95
2019-04-21T05:56:52.636Z,61.32
2019-04-21T05:57:45.821Z,60.87
2019-04-21T05:58:50.499Z,60.68
2019-04-21T05:59:54.791Z,60.60
2019-04-21T06:01:06.382Z,60.50
2019-04-21T06:02:59.200Z,60.12
2019-04-21T06:03:57.039Z,59.46
2019-04-21T06:05:11.644Z,59.23
2019-04-21T06:06:00.289Z,59.00
2019-04-21T06:06:58.788Z,58.47
2019-04-21T06:07:55.323Z,58.22
2019-04-21T06:08:53.923Z,57.67
2019-04-21T06:10:05.440Z,57.50
2019-04-21T06:11:13.451Z,57.13
2019-04-21T06:11:55.599Z,56.58
2019-04-21T06:13:01.872Z,56.68
2019-04-21T06:15:56.124Z,56.26
2019-04-21T06:17:01.528Z,55.98
2019-04-21T06:17:57.920Z,55.61
2019-04-21T06:18:58.719Z,55.30
2019-04-21T06:20:03.001Z,55.01
2019-04-21T06:21:00.393Z,55.04
2019-04-21T06:22:06.458Z,54.69
2019-04-21T06:22:56.620Z,54.53
2019-04-21T06:23:57.091Z,54.32
2019-04-21T06:27:08.167Z,53.99
2019-04-21T06:28:04.144Z,53.68
2019-04-21T06:28:56.865Z,53.59
2019-04-21T06:29:59.974Z,53.61
2019-04-21T06:31:14.481Z,53.26
2019-04-21T06:32:29.544Z,53.03
2019-04-21T06:33:00.283Z,52.90
2019-04-21T06:34:06.802Z,52.72
2019-04-21T06:35:22.991Z,52.64
2019-04-21T06:37:08.166Z,52.22
2019-04-21T06:38:05.664Z,51.86
2019-04-21T06:39:10.258Z,51.75
2019-04-21T06:41:07.855Z,51.83
2019-04-21T06:42:02.564Z,51.70
2019-04-21T06:43:20.370Z,51.56
2019-04-21T06:44:32.022Z,51.08
2019-04-21T06:45:07.271Z,50.88
2019-04-21T06:46:17.830Z,50.85
2019-04-21T06:47:06.369Z,50.66
2019-04-21T06:48:11.829Z,50.79
2019-04-21T06:49:02.663Z,50.55
2019-04-21T06:50:11.477Z,50.38
2019-04-21T06:51:08.815Z,50.14
2019-04-21T06:52:17.845Z,50.01
2019-04-21T06:53:05.588Z,49.84
2019-04-21T06:54:09.234Z,49.68
2019-04-21T06:55:12.589Z,49.75
2019-04-21T06:56:15.151Z,49.46
2019-04-21T06:57:11.990Z,49.13
2019-04-21T06:58:13.209Z,48.96
2019-04-21T06:59:06.747Z,48.64
2019-04-21T07:00:07.441Z,48.37
2019-04-21T07:01:07.167Z,48.23
2019-04-21T07:02:35.207Z,47.93
2019-04-21T07:03:20.699Z,47.63
2019-04-21T07:04:18.795Z,47.57
2019-04-21T07:05:15.032Z,47.57
2019-04-21T07:06:20.088Z,47.54
2019-04-21T07:07:12.951Z,47.39
2019-04-21T07:10:14.350Z,46.75
2019-04-21T07:11:12.453Z,46.46
2019-04-21T07:12:12.529Z,46.20
2019-04-21T07:13:08.274Z,45.79
2019-04-21T07:14:25.845Z,45.68
2019-04-21T07:15:12.684Z,45.50
2019-04-21T07:16:18.895Z,45.34
2019-04-21T07:17:20.227Z,45.32
2019-04-21T07:18:11.023Z,45.08
2019-04-21T07:19:25.738Z,44.69
2019-04-21T07:20:17.329Z,44.51
2019-04-21T07:21:12.780Z,44.40
2019-04-21T07:22:20.818Z,44.13
2019-04-21T07:23:22.473Z,44.16
2019-04-21T07:24:21.850Z,43.93
2019-04-21T07:25:18.219Z,43.85
2019-04-21T07:26:22.165Z,43.56
2019-04-21T07:27:18.928Z,43.52
2019-04-21T07:28:17.540Z,43.31
2019-04-21T07:29:23.616Z,42.88
2019-04-21T07:30:21.229Z,42.90
2019-04-21T07:32:14.079Z,42.65
2019-04-21T07:33:41.791Z,42.22
2019-04-21T07:35:22.088Z,41.78
2019-04-21T07:36:30.546Z,41.59
2019-04-21T07:37:20.774Z,41.28
2019-04-21T07:38:16.655Z,41.06
2019-04-21T07:39:18.459Z,41.06
2019-04-21T07:40:13.462Z,41.02
2019-04-21T07:41:13.629Z,40.73
2019-04-21T07:42:14.922Z,40.79
2019-04-21T07:43:16.686Z,40.77
2019-04-21T07:44:15.362Z,40.61
2019-04-21T07:45:16.871Z,40.33
2019-04-21T07:46:14.402Z,40.13
2019-04-21T07:47:23.087Z,40.15
2019-04-21T07:48:21.663Z,39.95
2019-04-21T07:49:19.126Z,39.84
2019-04-21T07:50:27.436Z,39.62
2019-04-21T07:51:25.339Z,39.52
2019-04-21T07:52:22.202Z,39.38
2019-04-21T07:53:27.708Z,39.23
2019-04-21T07:54:32.050Z,39.07
2019-04-21T07:56:09.531Z,38.80
2019-04-21T07:57:18.774Z,38.44
2019-04-21T07:58:20.965Z,38.39
2019-04-21T07:59:34.196Z,38.37
2019-04-21T08:00:29.322Z,38.39
2019-04-21T08:01:28.961Z,38.20
2019-04-21T08:02:28.166Z,38.16
2019-04-21T08:03:30.338Z,38.01
2019-04-21T08:04:44.027Z,38.07
2019-04-21T08:05:29.408Z,37.95
2019-04-21T08:06:26.840Z,37.84
2019-04-21T08:07:32.317Z,37.51
2019-04-21T08:08:20.737Z,37.52
2019-04-21T08:09:25.837Z,37.29
2019-04-21T08:10:28.630Z,37.39
2019-04-21T08:11:21.074Z,37.13
2019-04-21T08:12:20.241Z,36.96
2019-04-21T08:13:34.536Z,36.73
2019-04-21T08:15:33.928Z,36.17
2019-04-21T08:16:30.513Z,35.97
2019-04-21T08:17:30.788Z,35.62
2019-04-21T08:18:35.039Z,35.44
2019-04-21T08:19:31.219Z,35.59
2019-04-21T08:20:28.607Z,35.53
2019-04-21T08:21:33.946Z,35.49
2019-04-21T08:22:38.211Z,35.00
2019-04-21T08:23:31.574Z,34.98
2019-04-21T08:24:32.737Z,35.05
2019-04-21T08:25:52.912Z,35.09
2019-04-21T08:26:35.989Z,34.84
2019-04-21T08:27:35.209Z,34.90
2019-04-21T08:28:32.069Z,34.67
2019-04-21T08:29:33.494Z,34.63
2019-04-21T08:30:36.189Z,34.64
2019-04-21T08:32:46.353Z,34.62
2019-04-21T08:33:42.323Z,34.76
2019-04-21T08:34:34.501Z,34.38
2019-04-21T08:36:57.492Z,34.09
2019-04-21T08:37:31.083Z,33.87
2019-04-21T08:39:40.070Z,33.71
2019-04-21T08:40:37.926Z,33.55
2019-04-21T08:41:30.250Z,33.66
2019-04-21T08:42:30.575Z,33.38
2019-04-21T08:44:43.185Z,32.99
2019-04-21T08:46:39.091Z,32.65
2019-04-21T08:47:39.635Z,32.22
2019-04-21T08:48:34.959Z,31.74
2019-04-21T08:49:35.064Z,31.73
2019-04-21T08:50:38.941Z,31.73
2019-04-21T08:51:40.983Z,31.61
2019-04-21T08:52:42.440Z,31.29
2019-04-21T08:53:42.885Z,30.72
2019-04-21T08:54:40.947Z,30.57
2019-04-21T08:55:39.754Z,30.60
2019-04-21T08:56:41.386Z,30.33
2019-04-21T08:57:41.626Z,30.11
2019-04-21T08:58:43.093Z,30.00
2019-04-21T08:59:36.111Z,30.24
2019-04-21T09:00:38.924Z,30.42
2019-04-21T09:01:43.135Z,30.63
2019-04-21T09:02:47.300Z,30.68
2019-04-21T09:03:44.756Z,30.74
2019-04-21T09:04:39.655Z,30.71
2019-04-21T09:05:42.427Z,30.72
2019-04-21T09:06:54.175Z,30.53
2019-04-21T09:07:49.542Z,30.32
2019-04-21T09:08:39.261Z,29.93
2019-04-21T09:09:45.634Z,30.05
2019-04-21T09:10:39.209Z,30.05
2019-04-21T09:11:40.398Z,29.75
2019-04-21T09:12:43.139Z,29.90
2019-04-21T09:13:42.816Z,29.94
2019-04-21T09:14:41.557Z,29.88
2019-04-21T09:15:41.633Z,29.98
2019-04-21T09:16:41.095Z,29.86
2019-04-21T09:17:36.770Z,29.41
2019-04-21T09:18:41.514Z,29.32
2019-04-21T09:19:51.726Z,29.20
2019-04-21T09:21:49.958Z,29.09
2019-04-21T09:22:52.588Z,29.11
2019-04-21T09:23:46.810Z,29.22
2019-04-21T09:24:48.259Z,29.21
2019-04-21T09:25:49.525Z,29.00
2019-04-21T09:26:48.180Z,29.04
2019-04-21T09:28:42.113Z,29.13
2019-04-21T09:29:36.650Z,28.88
2019-04-21T09:30:33.806Z,28.94
2019-04-21T09:31:33.759Z,28.95
2019-04-21T09:32:32.894Z,28.82
2019-04-21T09:33:34.576Z,28.76
2019-04-21T09:34:36.575Z,28.74
2019-04-21T09:35:31.412Z,28.69
2019-04-21T09:36:38.952Z,28.73
2019-04-21T09:37:41.803Z,28.63
2019-04-21T09:38:37.125Z,28.40
2019-04-21T09:39:33.423Z,28.35
2019-04-21T09:40:39.459Z,28.13
2019-04-21T09:41:34.806Z,28.12
2019-04-21T09:42:41.536Z,28.27
2019-04-21T09:43:40.238Z,28.28
2019-04-21T09:44:38.637Z,28.29
2019-04-21T09:45:33.793Z,28.47
2019-04-21T09:46:41.756Z,28.56
2019-04-21T09:47:43.433Z,28.35
2019-04-21T09:48:46.690Z,28.20
2019-04-21T09:49:37.195Z,28.09
2019-04-21T09:50:37.735Z,27.93
2019-04-21T09:51:35.447Z,27.79
2019-04-21T09:52:41.763Z,27.66
2019-04-21T09:53:38.877Z,27.65
2019-04-21T09:54:49.350Z,27.49
2019-04-21T09:55:46.361Z,27.37
2019-04-21T09:56:46.577Z,27.34
2019-04-21T09:57:44.804Z,26.97
2019-04-21T09:58:43.743Z,26.99
2019-04-21T09:59:41.779Z,26.85
2019-04-21T10:00:51.023Z,26.59
2019-04-21T10:01:50.108Z,26.40
2019-04-21T10:02:47.034Z,26.05
2019-04-21T10:03:44.817Z,26.09
2019-04-21T10:04:40.100Z,25.82
2019-04-21T10:05:41.539Z,25.67
2019-04-21T10:06:40.463Z,25.62
2019-04-21T10:07:44.391Z,25.64
2019-04-21T10:08:42.324Z,25.43
2019-04-21T10:09:41.677Z,25.25
2019-04-21T10:10:42.454Z,24.90
2019-04-21T10:11:42.199Z,25.06
2019-04-21T10:12:43.377Z,24.98
2019-04-21T10:13:42.655Z,25.05
2019-04-21T10:14:43.065Z,25.22
2019-04-21T10:15:44.130Z,25.39
2019-04-21T10:16:44.959Z,25.22
2019-04-21T10:17:43.986Z,25.14
2019-04-21T10:18:44.071Z,24.93
2019-04-21T10:19:44.299Z,24.91
2019-04-21T10:20:44.861Z,24.90
2019-04-21T10:21:46.586Z,24.96
2019-04-21T10:22:45.319Z,24.79
2019-04-21T10:23:45.762Z,24.92
2019-04-21T10:24:46.745Z,24.81
2019-04-21T10:25:46.435Z,24.66
2019-04-21T10:26:47.184Z,24.49
2019-04-21T10:27:47.273Z,24.48
2019-04-21T10:28:47.045Z,24.47
2019-04-21T10:29:49.076Z,24.57
2019-04-21T10:30:48.967Z,24.92
2019-04-21T10:31:48.293Z,24.76
2019-04-21T10:32:48.735Z,24.53
2019-04-21T10:33:50.271Z,24.62
2019-04-21T10:34:49.686Z,24.55
2019-04-21T10:35:50.890Z,24.41
2019-04-21T10:36:51.199Z,24.07
2019-04-21T10:38:05.740Z,23.87
2019-04-21T10:38:53.402Z,23.96
2019-04-21T10:39:51.626Z,23.91
2019-04-21T10:40:51.820Z,23.93
2019-04-21T10:41:53.168Z,23.86
2019-04-21T10:42:52.358Z,23.96
2019-04-21T10:43:53.368Z,23.79
2019-04-21T10:44:52.777Z,23.77
2019-04-21T10:45:52.978Z,23.61
2019-04-21T10:46:54.526Z,23.51
2019-04-21T10:47:54.829Z,23.30
2019-04-21T10:48:54.927Z,23.28
2019-04-21T10:49:54.919Z,23.09
2019-04-21T10:50:54.902Z,22.84
2019-04-21T10:51:54.985Z,22.89
2019-04-21T10:52:55.304Z,22.75
2019-04-21T10:53:55.967Z,22.85
2019-04-21T10:55:12.758Z,22.68
2019-04-21T10:56:08.228Z,22.65
2019-04-21T10:56:56.668Z,22.69
2019-04-21T10:57:56.282Z,22.80
2019-04-21T10:58:56.514Z,22.59
2019-04-21T10:59:58.213Z,22.15
2019-04-21T11:00:57.911Z,22.19
2019-04-21T11:02:58.974Z,21.38
2019-04-21T11:03:58.514Z,21.66
2019-04-21T11:04:58.532Z,21.74
2019-04-21T11:05:58.887Z,21.63
2019-04-21T11:07:06.979Z,21.57
2019-04-21T11:08:08.925Z,21.46
2019-04-21T11:08:59.981Z,21.66
2019-04-21T11:10:00.006Z,21.33
2019-04-21T11:10:59.384Z,21.46
2019-04-21T11:12:00.006Z,21.57
2019-04-21T11:13:00.794Z,21.42
2019-04-21T11:14:02.235Z,21.09
2019-04-21T11:15:01.210Z,20.67
2019-04-21T11:16:01.522Z,20.62
2019-04-21T11:17:02.070Z,20.38
2019-04-21T11:18:02.149Z,20.31
2019-04-21T11:19:02.080Z,20.13
2019-04-21T11:20:02.595Z,20.11
2019-04-21T11:21:03.019Z,20.12
2019-04-21T11:22:03.001Z,19.93
2019-04-21T11:23:02.745Z,19.57
2019-04-21T11:24:03.962Z,19.38
2019-04-21T11:25:03.107Z,19.29
2019-04-21T11:26:04.385Z,19.32
2019-04-21T11:27:04.523Z,19.42
2019-04-21T11:28:03.165Z,19.49
2019-04-21T11:29:03.268Z,19.69
2019-04-21T11:30:03.289Z,19.69
2019-04-21T11:31:04.886Z,19.43
2019-04-21T11:32:05.100Z,19.36
2019-04-21T11:33:03.687Z,19.29
2019-04-21T11:34:05.030Z,19.26
2019-04-21T11:35:05.216Z,19.33
2019-04-21T11:36:04.167Z,19.32
2019-04-21T11:37:04.025Z,19.22
2019-04-21T11:38:12.081Z,19.19
2019-04-21T11:39:17.466Z,19.18
2019-04-21T11:40:10.537Z,19.20
2019-04-21T11:41:05.527Z,19.07
2019-04-21T11:42:05.904Z,18.88
2019-04-21T11:43:06.000Z,19.05
2019-04-21T11:44:06.147Z,19.00
2019-04-21T11:45:06.629Z,19.15
2019-04-21T11:46:06.864Z,19.49
2019-04-21T11:47:07.359Z,19.43
2019-04-21T11:48:08.182Z,19.60
2019-04-21T11:51:09.026Z,19.63
2019-04-21T11:52:09.160Z,19.48
2019-04-21T11:53:09.019Z,19.35
2019-04-21T11:54:10.731Z,19.28
2019-04-21T11:55:11.104Z,19.55
2019-04-21T11:56:09.871Z,19.55
2019-04-21T11:57:17.652Z,19.55
2019-04-21T11:58:11.806Z,19.62
2019-04-21T11:59:12.020Z,19.70
2019-04-21T12:00:11.507Z,19.82
2019-04-21T12:01:11.665Z,19.58
2019-04-21T12:02:12.042Z,19.62
2019-04-21T12:03:15.174Z,19.22
2019-04-21T12:04:13.753Z,19.10
2019-04-21T12:05:12.711Z,19.05
2019-04-21T12:06:13.396Z,18.98
2019-04-21T12:07:13.297Z,19.06
2019-04-21T12:08:23.006Z,19.19
2019-04-21T12:09:14.582Z,19.14
2019-04-21T12:10:13.716Z,19.03
2019-04-21T12:11:13.952Z,19.03
2019-04-21T12:12:14.964Z,19.04
2019-04-21T12:13:16.158Z,18.92
2019-04-21T12:14:14.546Z,18.95
2019-04-21T12:15:15.098Z,18.83
2019-04-21T12:16:15.121Z,18.87
2019-04-21T12:17:16.366Z,18.60
2019-04-21T12:18:15.882Z,18.34
2019-04-21T12:19:16.712Z,18.50
2019-04-21T12:20:16.820Z,18.46
2019-04-21T12:21:16.263Z,18.46
2019-04-21T12:22:22.171Z,18.70
2019-04-21T12:23:16.897Z,18.62
2019-04-21T12:24:17.470Z,18.67
2019-04-21T12:25:18.732Z,18.65
2019-04-21T12:26:18.159Z,18.67
2019-04-21T12:27:18.499Z,18.85
2019-04-21T12:28:19.592Z,18.75
2019-04-21T12:29:18.941Z,18.69
2019-04-21T12:30:19.842Z,18.46
2019-04-21T12:31:19.339Z,18.28
2019-04-21T12:32:20.242Z,18.29
2019-04-21T12:33:20.249Z,18.24
2019-04-21T12:34:20.001Z,18.09
2019-04-21T12:35:20.209Z,18.23
2019-04-21T12:36:20.497Z,18.32
2019-04-21T12:37:20.737Z,18.43
2019-04-21T12:38:32.070Z,18.89
2019-04-21T12:39:22.906Z,18.99
2019-04-21T12:40:21.736Z,18.71
2019-04-21T12:41:22.599Z,18.92
2019-04-21T12:42:22.881Z,19.08
2019-04-21T12:43:22.868Z,19.17
2019-04-21T12:44:24.322Z,18.56
2019-04-21T12:45:24.062Z,18.67
2019-04-21T12:46:23.696Z,18.89
2019-04-21T12:47:24.064Z,19.05
2019-04-21T12:48:24.437Z,18.93
2019-04-21T12:49:25.625Z,18.86
2019-04-21T12:50:25.848Z,18.74
2019-04-21T12:51:25.974Z,18.49
2019-04-21T12:52:25.765Z,18.35
2019-04-21T12:53:27.565Z,18.18
2019-04-21T12:54:27.912Z,18.18
2019-04-21T12:55:31.553Z,17.89
2019-04-21T12:56:27.600Z,18.05
2019-04-21T12:57:30.230Z,17.91
2019-04-21T12:58:28.988Z,17.96
2019-04-21T12:59:29.678Z,17.74
2019-04-21T13:00:28.951Z,17.77
2019-04-21T13:01:28.438Z,17.82
2019-04-21T13:02:29.635Z,18.04
2019-04-21T13:03:30.363Z,18.13
2019-04-21T13:04:29.394Z,18.22
2019-04-21T13:05:29.730Z,18.08
2019-04-21T13:06:29.736Z,18.07
2019-04-21T13:07:31.192Z,18.34
2019-04-21T13:08:41.537Z,18.11
2019-04-21T13:09:32.125Z,17.96
2019-04-21T13:10:30.769Z,17.82
2019-04-21T13:11:31.105Z,16.71
2019-04-21T13:12:31.409Z,16.10
2019-04-21T13:13:32.224Z,15.76
2019-04-21T13:14:32.191Z,16.03
2019-04-21T13:15:33.638Z,16.20
2019-04-21T13:16:33.672Z,16.77
2019-04-21T13:17:33.177Z,17.40
2019-04-21T13:18:33.404Z,17.63
2019-04-21T13:19:33.847Z,17.78
2019-04-21T13:20:34.259Z,17.79
2019-04-21T13:21:34.544Z,17.89
2019-04-21T13:22:34.776Z,17.84
2019-04-21T13:23:35.120Z,17.79
2019-04-21T13:24:35.840Z,17.97
2019-04-21T13:25:36.039Z,18.16
2019-04-21T13:26:43.866Z,18.51
2019-04-21T13:27:36.714Z,18.52
2019-04-21T13:28:37.643Z,18.73
2019-04-21T13:29:36.893Z,18.77
2019-04-21T13:30:38.070Z,18.60
2019-04-21T13:31:38.427Z,18.61
2019-04-21T13:32:39.190Z,18.53
2019-04-21T13:33:38.130Z,18.37
2019-04-21T13:34:40.009Z,18.25
2019-04-21T13:35:39.156Z,18.41
2019-04-21T13:36:39.517Z,18.09
2019-04-21T13:37:39.604Z,18.09
2019-04-21T13:38:50.476Z,18.03
2019-04-21T13:40:01.819Z,17.87
2019-04-21T13:40:57.053Z,17.82
2019-04-21T13:41:49.399Z,17.80
2019-04-21T13:42:47.714Z,17.54
2019-04-21T13:43:41.496Z,17.64
2019-04-21T13:44:41.738Z,17.50
2019-04-21T13:45:42.071Z,17.43
2019-04-21T13:46:43.030Z,16.74
2019-04-21T13:47:42.962Z,16.10
2019-04-21T13:48:44.511Z,15.46
2019-04-21T13:49:43.805Z,15.05
2019-04-21T13:50:44.086Z,15.02
2019-04-21T13:51:45.785Z,14.33
2019-04-21T13:52:44.965Z,13.93
2019-04-21T13:53:45.949Z,13.73
2019-04-21T13:54:45.621Z,13.95
2019-04-21T13:55:46.675Z,13.98
2019-04-21T13:56:46.912Z,14.79
2019-04-21T13:57:46.512Z,15.50
2019-04-21T13:58:46.608Z,16.17
2019-04-21T13:59:49.398Z,16.14
2019-04-21T14:00:47.815Z,16.18
2019-04-21T14:01:47.786Z,16.27
2019-04-21T14:02:48.991Z,16.25
2019-04-21T14:03:49.094Z,16.28
2019-04-21T14:04:49.637Z,16.22
2019-04-21T14:05:48.696Z,16.23
2019-04-21T14:06:50.023Z,16.04
2019-04-21T14:07:50.281Z,15.94
2019-04-21T14:08:51.177Z,15.89
2019-04-21T14:09:56.037Z,16.05
2019-04-21T14:10:49.750Z,16.03
2019-04-21T14:11:53.452Z,15.90
2019-04-21T14:12:50.695Z,15.85
2019-04-21T14:13:51.999Z,15.86
2019-04-21T14:14:52.462Z,15.64
2019-04-21T14:15:51.864Z,15.29
2019-04-21T14:16:52.115Z,15.31
2019-04-21T14:17:53.061Z,15.38
2019-04-21T14:18:52.748Z,15.54
2019-04-21T14:19:53.199Z,15.57
2019-04-21T14:20:53.622Z,15.59
2019-04-21T14:21:55.051Z,15.52